createdAt,value
2018-11-20T00:00:57.057Z,0.00
2018-11-20T00:01:57.149Z,0.00
2018-11-20T00:02:57.037Z,0.00
2018-11-20T00:03:57.026Z,0.00
2018-11-20T00:04:57.016Z,0.00
2018-11-20T00:05:57.004Z,0.00
2018-11-20T00:06:56.993Z,0.00
2018-11-20T00:07:57.083Z,0.00
2018-11-20T00:08:56.972Z,0.00
2018-11-20T00:09:56.960Z,0.00
2018-11-20T00:10:56.954Z,0.00
2018-11-20T00:11:56.938Z,0.00
2018-11-20T00:12:56.929Z,0.00
2018-11-20T00:13:57.089Z,0.00
2018-11-20T00:14:56.906Z,0.00
2018-11-20T00:15:56.895Z,0.00
2018-11-20T00:16:56.884Z,0.00
2018-11-20T00:17:56.877Z,0.00
2018-11-20T00:18:56.865Z,0.00
2018-11-20T00:19:57.128Z,0.00
2018-11-20T00:20:56.840Z,0.00
2018-11-20T00:21:56.829Z,0.00
2018-11-20T00:22:56.819Z,0.00
2018-11-20T00:23:56.808Z,0.00
2018-11-20T00:24:56.797Z,0.00
2018-11-20T00:25:56.883Z,0.00
2018-11-20T00:26:56.776Z,0.00
2018-11-20T00:27:56.768Z,0.00
2018-11-20T00:28:56.753Z,0.00
2018-11-20T00:29:56.745Z,0.00
2018-11-20T00:30:56.734Z,0.00
2018-11-20T00:31:56.979Z,0.00
2018-11-20T00:32:56.711Z,0.00
2018-11-20T00:33:56.701Z,0.00
2018-11-20T00:34:56.690Z,0.00
2018-11-20T00:35:56.678Z,0.00
2018-11-20T00:36:56.670Z,0.00
2018-11-20T00:37:56.878Z,0.00
2018-11-20T00:38:56.649Z,0.00
2018-11-20T00:39:56.636Z,0.00
2018-11-20T00:40:56.625Z,0.00
2018-11-20T00:41:56.618Z,0.00
2018-11-20T00:42:56.603Z,0.00
2018-11-20T00:43:56.691Z,0.00
2018-11-20T00:44:56.587Z,0.00
2018-11-20T00:45:56.571Z,0.00
2018-11-20T00:46:56.560Z,0.00
2018-11-20T00:47:56.549Z,0.00
2018-11-20T00:48:56.539Z,0.00
2018-11-20T00:49:56.633Z,0.00
2018-11-20T00:50:56.515Z,0.00
2018-11-20T00:51:56.508Z,0.00
2018-11-20T00:52:56.494Z,0.00
2018-11-20T00:53:56.483Z,0.00
2018-11-20T00:54:56.473Z,0.00
2018-11-20T00:55:56.631Z,0.00
2018-11-20T00:56:56.452Z,0.00
2018-11-20T00:57:56.447Z,0.00
2018-11-20T00:58:56.429Z,0.00
2018-11-20T00:59:56.418Z,0.00
2018-11-20T01:00:56.407Z,0.00
2018-11-20T01:01:56.600Z,0.00
2018-11-20T01:02:56.386Z,0.00
2018-11-20T01:03:56.374Z,0.00
2018-11-20T01:04:56.368Z,0.00
2018-11-20T01:05:56.353Z,0.00
2018-11-20T01:06:56.342Z,0.00
2018-11-20T01:07:56.478Z,0.00
2018-11-20T01:08:56.326Z,0.00
2018-11-20T01:09:56.311Z,0.00
2018-11-20T01:10:56.299Z,0.00
2018-11-20T01:11:56.290Z,0.00
2018-11-20T01:12:56.278Z,0.00
2018-11-20T01:13:56.451Z,0.00
2018-11-20T01:14:56.255Z,0.00
2018-11-20T01:15:56.245Z,0.00
2018-11-20T01:16:56.233Z,0.00
2018-11-20T01:17:56.224Z,0.00
2018-11-20T01:18:56.213Z,0.00
2018-11-20T01:19:56.398Z,0.00
2018-11-20T01:20:56.191Z,0.00
2018-11-20T01:21:56.180Z,0.00
2018-11-20T01:22:56.167Z,0.00
2018-11-20T01:23:56.158Z,0.00
2018-11-20T01:24:56.147Z,0.00
2018-11-20T01:25:56.238Z,0.00
2018-11-20T01:26:56.126Z,0.00
2018-11-20T01:27:56.115Z,0.00
2018-11-20T01:28:56.105Z,0.00
2018-11-20T01:29:56.092Z,0.00
2018-11-20T01:30:56.086Z,0.00
2018-11-20T01:31:56.179Z,0.00
2018-11-20T01:32:56.060Z,0.00
2018-11-20T01:33:56.049Z,0.00
2018-11-20T01:34:56.037Z,0.00
2018-11-20T01:35:56.031Z,0.00
2018-11-20T01:36:56.016Z,0.00
2018-11-20T01:37:56.324Z,0.00
2018-11-20T01:38:55.995Z,0.00
2018-11-20T01:39:55.985Z,0.00
2018-11-20T01:40:55.975Z,0.00
2018-11-20T01:41:55.964Z,0.00
2018-11-20T01:42:55.952Z,0.00
2018-11-20T01:43:56.051Z,0.00
2018-11-20T01:44:55.929Z,0.00
2018-11-20T01:45:55.919Z,0.00
2018-11-20T01:46:55.908Z,0.00
2018-11-20T01:47:55.899Z,0.00
2018-11-20T01:48:55.889Z,0.00
2018-11-20T01:49:55.971Z,0.00
2018-11-20T01:50:55.865Z,0.00
2018-11-20T01:51:55.854Z,0.00
2018-11-20T01:52:55.844Z,0.00
2018-11-20T01:53:55.832Z,0.00
2018-11-20T01:54:55.849Z,0.00
2018-11-20T01:55:55.994Z,0.00
2018-11-20T01:56:55.799Z,0.00
2018-11-20T01:57:55.790Z,0.00
2018-11-20T01:58:55.777Z,0.00
2018-11-20T01:59:55.769Z,0.00
2018-11-20T02:00:55.756Z,0.00
2018-11-20T02:01:55.924Z,0.00
2018-11-20T02:02:55.735Z,0.00
2018-11-20T02:03:55.726Z,0.00
2018-11-20T02:04:55.712Z,0.00
2018-11-20T02:05:55.701Z,0.00
2018-11-20T02:06:55.690Z,0.00
2018-11-20T02:07:55.778Z,0.00
2018-11-20T02:08:55.669Z,0.00
2018-11-20T02:09:55.659Z,0.00
2018-11-20T02:10:55.649Z,0.00
2018-11-20T02:11:55.637Z,0.00
2018-11-20T02:12:55.627Z,0.00
2018-11-20T02:13:55.713Z,0.00
2018-11-20T02:14:55.605Z,0.00
2018-11-20T02:15:55.594Z,0.00
2018-11-20T02:16:55.584Z,0.00
2018-11-20T02:17:55.573Z,0.00
2018-11-20T02:18:55.562Z,0.00
2018-11-20T02:19:55.841Z,0.00
2018-11-20T02:20:55.540Z,0.00
2018-11-20T02:21:55.530Z,0.00
2018-11-20T02:22:55.520Z,0.00
2018-11-20T02:23:55.524Z,0.00
2018-11-20T02:24:55.499Z,0.00
2018-11-20T02:25:55.635Z,0.00
2018-11-20T02:26:55.476Z,0.00
2018-11-20T02:27:55.465Z,0.00
2018-11-20T02:28:55.454Z,0.00
2018-11-20T02:29:55.442Z,0.00
2018-11-20T02:30:55.433Z,0.00
2018-11-20T02:31:55.518Z,0.00
2018-11-20T02:32:55.411Z,0.00
2018-11-20T02:33:55.401Z,0.00
2018-11-20T02:34:55.389Z,0.00
2018-11-20T02:35:55.401Z,0.00
2018-11-20T02:36:55.366Z,0.00
2018-11-20T02:37:55.565Z,0.00
2018-11-20T02:38:55.347Z,0.00
2018-11-20T02:39:55.336Z,0.00
2018-11-20T02:40:55.388Z,0.00
2018-11-20T02:41:55.314Z,0.00
2018-11-20T02:42:55.302Z,0.00
2018-11-20T02:43:55.387Z,0.00
2018-11-20T02:44:55.281Z,0.00
2018-11-20T02:45:55.268Z,0.00
2018-11-20T02:46:55.270Z,0.00
2018-11-20T02:47:55.248Z,0.00
2018-11-20T02:48:55.240Z,0.00
2018-11-20T02:49:55.366Z,0.00
2018-11-20T02:50:55.216Z,0.00
2018-11-20T02:51:55.205Z,0.00
2018-11-20T02:52:55.194Z,0.00
2018-11-20T02:53:55.183Z,0.00
2018-11-20T02:54:55.177Z,0.00
2018-11-20T02:55:55.337Z,0.00
2018-11-20T02:56:55.154Z,0.00
2018-11-20T02:57:55.140Z,0.00
2018-11-20T02:58:55.129Z,0.00
2018-11-20T02:59:55.117Z,0.00
2018-11-20T03:00:55.108Z,0.00
2018-11-20T03:01:55.193Z,0.00
2018-11-20T03:02:55.087Z,0.00
2018-11-20T03:03:55.203Z,0.00
2018-11-20T03:04:55.064Z,0.00
2018-11-20T03:05:55.053Z,0.00
2018-11-20T03:06:55.043Z,0.00
2018-11-20T03:07:55.143Z,0.00
2018-11-20T03:08:55.020Z,0.00
2018-11-20T03:09:55.010Z,0.00
2018-11-20T03:10:55.000Z,0.00
2018-11-20T03:11:54.996Z,0.00
2018-11-20T03:12:54.978Z,0.00
2018-11-20T03:13:55.176Z,0.00
2018-11-20T03:14:54.956Z,0.00
2018-11-20T03:15:54.944Z,0.00
2018-11-20T03:16:54.934Z,0.00
2018-11-20T03:17:54.927Z,0.00
2018-11-20T03:18:54.921Z,0.00
2018-11-20T03:19:55.174Z,0.00
2018-11-20T03:20:54.890Z,0.00
2018-11-20T03:21:54.880Z,0.00
2018-11-20T03:22:54.872Z,0.00
2018-11-20T03:23:54.857Z,0.00
2018-11-20T03:24:54.846Z,0.00
2018-11-20T03:25:54.933Z,0.00
2018-11-20T03:26:54.904Z,0.00
2018-11-20T03:27:54.814Z,0.00
2018-11-20T03:28:54.804Z,0.00
2018-11-20T03:29:54.792Z,0.00
2018-11-20T03:30:54.781Z,0.00
2018-11-20T03:31:55.944Z,0.00
2018-11-20T03:32:54.760Z,0.00
2018-11-20T03:33:54.751Z,0.00
2018-11-20T03:34:54.739Z,0.00
2018-11-20T03:35:54.770Z,0.00
2018-11-20T03:36:54.720Z,0.00
2018-11-20T03:37:54.802Z,0.00
2018-11-20T03:38:54.697Z,0.00
2018-11-20T03:39:54.684Z,0.00
2018-11-20T03:40:54.675Z,0.00
2018-11-20T03:41:54.663Z,0.00
2018-11-20T03:42:54.655Z,0.00
2018-11-20T03:43:54.748Z,0.00
2018-11-20T03:44:54.630Z,0.00
2018-11-20T03:45:54.620Z,0.00
2018-11-20T03:46:54.610Z,0.00
2018-11-20T03:47:54.633Z,0.00
2018-11-20T03:48:54.587Z,0.00
2018-11-20T03:49:54.673Z,0.00
2018-11-20T03:50:54.564Z,0.00
2018-11-20T03:51:54.553Z,0.00
2018-11-20T03:52:54.545Z,0.00
2018-11-20T03:53:54.532Z,0.00
2018-11-20T03:54:54.521Z,0.00
2018-11-20T03:55:54.618Z,4.00
2018-11-20T03:56:54.499Z,0.00
2018-11-20T03:57:54.488Z,0.00
2018-11-20T03:58:54.477Z,4.00
2018-11-20T03:59:54.466Z,4.00
2018-11-20T04:00:54.466Z,4.00
2018-11-20T04:01:54.744Z,4.00
2018-11-20T04:02:54.436Z,8.00
2018-11-20T04:03:54.434Z,8.00
2018-11-20T04:04:54.444Z,8.00
2018-11-20T04:05:54.403Z,8.00
2018-11-20T04:06:54.392Z,12.00
2018-11-20T04:07:54.499Z,12.00
2018-11-20T04:08:54.372Z,16.00
2018-11-20T04:09:54.358Z,20.00
2018-11-20T04:10:54.349Z,20.00
2018-11-20T04:11:54.336Z,24.00
2018-11-20T04:12:54.324Z,28.00
2018-11-20T04:13:54.411Z,32.00
2018-11-20T04:14:54.304Z,36.00
2018-11-20T04:15:54.293Z,40.00
2018-11-20T04:16:54.283Z,44.00
2018-11-20T04:17:54.312Z,48.00
2018-11-20T04:18:54.261Z,52.00
2018-11-20T04:19:54.460Z,60.00
2018-11-20T04:20:54.239Z,64.00
2018-11-20T04:21:54.228Z,68.00
2018-11-20T04:22:54.217Z,72.00
2018-11-20T04:23:54.207Z,80.00
2018-11-20T04:24:54.204Z,84.00
2018-11-20T04:25:54.281Z,88.00
2018-11-20T04:26:54.174Z,96.00
2018-11-20T04:27:54.173Z,104.00
2018-11-20T04:28:54.152Z,108.00
2018-11-20T04:29:54.142Z,116.00
2018-11-20T04:30:54.131Z,120.00
2018-11-20T04:31:54.395Z,128.00
2018-11-20T04:32:54.108Z,136.00
2018-11-20T04:33:54.101Z,140.00
2018-11-20T04:34:54.088Z,148.00
2018-11-20T04:35:54.076Z,152.00
2018-11-20T04:36:54.067Z,160.00
2018-11-20T04:37:54.182Z,168.00
2018-11-20T04:38:54.042Z,172.00
2018-11-20T04:39:54.032Z,180.00
2018-11-20T04:40:54.021Z,184.00
2018-11-20T04:41:54.010Z,196.00
2018-11-20T04:42:54.000Z,200.00
2018-11-20T04:43:54.094Z,204.00
2018-11-20T04:44:53.981Z,212.00
2018-11-20T04:45:53.975Z,220.00
2018-11-20T04:46:53.956Z,224.00
2018-11-20T04:47:53.949Z,232.00
2018-11-20T04:48:53.933Z,240.00
2018-11-20T04:49:54.328Z,244.00
2018-11-20T04:50:53.913Z,252.00
2018-11-20T04:51:53.905Z,260.00
2018-11-20T04:52:53.895Z,264.00
2018-11-20T04:53:53.881Z,268.00
2018-11-20T04:54:53.880Z,272.00
2018-11-20T04:55:53.979Z,280.00
2018-11-20T04:56:53.849Z,284.00
2018-11-20T04:57:53.838Z,288.00
2018-11-20T04:58:53.829Z,296.00
2018-11-20T04:59:53.816Z,300.00
2018-11-20T05:00:53.806Z,308.00
2018-11-20T05:01:54.235Z,312.00
2018-11-20T05:02:53.783Z,316.00
2018-11-20T05:03:53.780Z,324.00
2018-11-20T05:04:53.763Z,328.00
2018-11-20T05:05:53.752Z,336.00
2018-11-20T05:06:53.848Z,340.00
2018-11-20T05:07:54.034Z,344.00
2018-11-20T05:08:53.720Z,348.00
2018-11-20T05:09:53.709Z,356.00
2018-11-20T05:10:53.698Z,360.00
2018-11-20T05:11:53.687Z,364.00
2018-11-20T05:12:53.676Z,372.00
2018-11-20T05:13:53.770Z,376.00
2018-11-20T05:14:53.654Z,380.00
2018-11-20T05:15:53.644Z,388.00
2018-11-20T05:16:53.633Z,392.00
2018-11-20T05:17:53.626Z,396.00
2018-11-20T05:18:53.612Z,400.00
2018-11-20T05:19:53.734Z,408.00
2018-11-20T05:20:53.589Z,412.00
2018-11-20T05:21:53.579Z,420.00
2018-11-20T05:22:53.569Z,420.00
2018-11-20T05:23:53.555Z,428.00
2018-11-20T05:24:53.546Z,432.00
2018-11-20T05:25:53.852Z,436.00
2018-11-20T05:26:53.525Z,444.00
2018-11-20T05:27:53.528Z,448.00
2018-11-20T05:28:53.504Z,452.00
2018-11-20T05:29:53.492Z,460.00
2018-11-20T05:30:53.493Z,464.00
2018-11-20T05:31:53.567Z,472.00
2018-11-20T05:32:53.463Z,480.00
2018-11-20T05:33:53.449Z,488.00
2018-11-20T05:34:53.440Z,492.00
2018-11-20T05:35:53.429Z,504.00
2018-11-20T05:36:53.419Z,508.00
2018-11-20T05:37:53.610Z,512.00
2018-11-20T05:38:53.400Z,512.00
2018-11-20T05:39:53.386Z,512.00
2018-11-20T05:40:53.380Z,520.00
2018-11-20T05:41:53.367Z,520.00
2018-11-20T05:42:53.355Z,520.00
2018-11-20T05:43:53.538Z,520.00
2018-11-20T05:44:53.337Z,516.00
2018-11-20T05:45:53.321Z,516.00
2018-11-20T05:46:53.475Z,512.00
2018-11-20T05:47:53.303Z,516.00
2018-11-20T05:48:53.289Z,524.00
2018-11-20T05:49:53.477Z,524.00
2018-11-20T05:50:53.268Z,532.00
2018-11-20T05:51:53.259Z,540.00
2018-11-20T05:52:53.246Z,552.00
2018-11-20T05:53:55.136Z,560.00
2018-11-20T05:54:53.226Z,572.00
2018-11-20T05:55:53.357Z,576.00
2018-11-20T05:56:53.203Z,580.00
2018-11-20T05:57:53.204Z,588.00
2018-11-20T05:58:53.181Z,596.00
2018-11-20T05:59:53.170Z,604.00
2018-11-20T06:00:53.161Z,608.00
2018-11-20T06:01:53.284Z,608.00
2018-11-20T06:02:53.139Z,616.00
2018-11-20T06:03:53.129Z,620.00
2018-11-20T06:04:53.129Z,624.00
2018-11-20T06:05:53.146Z,628.00
2018-11-20T06:06:53.101Z,628.00
2018-11-20T06:07:53.296Z,628.00
2018-11-20T06:08:53.076Z,636.00
2018-11-20T06:09:53.066Z,640.00
2018-11-20T06:10:53.057Z,640.00
2018-11-20T06:11:53.040Z,644.00
2018-11-20T06:12:53.197Z,644.00
2018-11-20T06:13:53.125Z,652.00
2018-11-20T06:14:53.008Z,652.00
2018-11-20T06:15:53.024Z,536.00
2018-11-20T06:16:53.655Z,536.00
2018-11-20T06:17:52.976Z,540.00
2018-11-20T06:18:52.988Z,540.00
2018-11-20T06:19:53.051Z,536.00
2018-11-20T06:20:52.942Z,544.00
2018-11-20T06:21:52.931Z,548.00
2018-11-20T06:22:52.921Z,552.00
2018-11-20T06:23:52.920Z,560.00
2018-11-20T06:24:52.899Z,560.00
2018-11-20T06:25:53.079Z,568.00
2018-11-20T06:26:52.878Z,572.00
2018-11-20T06:27:52.867Z,580.00
2018-11-20T06:28:53.042Z,580.00
2018-11-20T06:29:52.846Z,584.00
2018-11-20T06:30:52.834Z,588.00
2018-11-20T06:31:52.921Z,596.00
2018-11-20T06:32:52.815Z,600.00
2018-11-20T06:33:52.802Z,608.00
2018-11-20T06:34:52.799Z,640.00
2018-11-20T06:35:52.781Z,640.00
2018-11-20T06:36:52.771Z,196.00
2018-11-20T06:37:52.909Z,1664.00
2018-11-20T06:38:52.749Z,1772.00
2018-11-20T06:39:52.738Z,1820.00
2018-11-20T06:40:52.728Z,1864.00
2018-11-20T06:41:52.717Z,1908.00
2018-11-20T06:42:52.708Z,1960.00
2018-11-20T06:43:52.898Z,2012.00
2018-11-20T06:44:52.683Z,2048.00
2018-11-20T06:45:52.672Z,2100.00
2018-11-20T06:46:52.663Z,2156.00
2018-11-20T06:47:52.652Z,2228.00
2018-11-20T06:48:52.641Z,2268.00
2018-11-20T06:49:54.005Z,2280.00
2018-11-20T06:50:52.620Z,2248.00
2018-11-20T06:51:52.608Z,2320.00
2018-11-20T06:52:52.718Z,2348.00
2018-11-20T06:53:52.603Z,2368.00
2018-11-20T06:54:52.575Z,2392.00
2018-11-20T06:55:52.669Z,2428.00
2018-11-20T06:56:52.558Z,2468.00
2018-11-20T06:57:52.543Z,2492.00
2018-11-20T06:58:52.532Z,2636.00
2018-11-20T06:59:52.521Z,2712.00
2018-11-20T07:00:52.511Z,2788.00
2018-11-20T07:01:52.684Z,2852.00
2018-11-20T07:02:52.489Z,2904.00
2018-11-20T07:03:52.478Z,2964.00
2018-11-20T07:04:52.468Z,2992.00
2018-11-20T07:05:52.456Z,3000.00
2018-11-20T07:06:52.447Z,3036.00
2018-11-20T07:07:52.718Z,3084.00
2018-11-20T07:08:52.465Z,3056.00
2018-11-20T07:09:52.413Z,3120.00
2018-11-20T07:10:52.402Z,3104.00
2018-11-20T07:11:52.391Z,3112.00
2018-11-20T07:12:52.380Z,3160.00
2018-11-20T07:13:52.494Z,3180.00
2018-11-20T07:14:52.365Z,3192.00
2018-11-20T07:15:52.506Z,3184.00
2018-11-20T07:16:52.339Z,3196.00
2018-11-20T07:17:52.327Z,3216.00
2018-11-20T07:18:52.324Z,3224.00
2018-11-20T07:19:52.580Z,3232.00
2018-11-20T07:20:52.296Z,3148.00
2018-11-20T07:21:52.283Z,3108.00
2018-11-20T07:22:52.281Z,3092.00
2018-11-20T07:23:52.263Z,3052.00
2018-11-20T07:24:52.345Z,3060.00
2018-11-20T07:25:52.365Z,3036.00
2018-11-20T07:26:52.231Z,2956.00
2018-11-20T07:27:52.226Z,2828.00
2018-11-20T07:28:52.210Z,2568.00
2018-11-20T07:29:52.216Z,2844.00
2018-11-20T07:30:52.349Z,2872.00
2018-11-20T07:31:52.295Z,2892.00
2018-11-20T07:32:52.166Z,2872.00
2018-11-20T07:33:52.156Z,2856.00
2018-11-20T07:34:52.150Z,2856.00
2018-11-20T07:35:52.193Z,2924.00
2018-11-20T07:36:52.235Z,2892.00
2018-11-20T07:37:52.294Z,2816.00
2018-11-20T07:38:52.100Z,3032.00
2018-11-20T07:39:52.090Z,3084.00
2018-11-20T07:40:52.078Z,3200.00
2018-11-20T07:41:52.068Z,3292.00
2018-11-20T07:42:52.057Z,3376.00
2018-11-20T07:43:52.272Z,3432.00
2018-11-20T07:44:52.037Z,3420.00
2018-11-20T07:45:52.026Z,2892.00
2018-11-20T07:46:52.022Z,2820.00
2018-11-20T07:47:52.003Z,2836.00
2018-11-20T07:48:51.993Z,2880.00
2018-11-20T07:49:52.092Z,3232.00
2018-11-20T07:50:51.975Z,3248.00
2018-11-20T07:51:51.961Z,3336.00
2018-11-20T07:52:51.951Z,3484.00
2018-11-20T07:53:51.941Z,3276.00
2018-11-20T07:54:51.933Z,3440.00
2018-11-20T07:55:52.310Z,3188.00
2018-11-20T07:56:51.907Z,2900.00
2018-11-20T07:57:51.898Z,3320.00
2018-11-20T07:58:51.887Z,3372.00
2018-11-20T07:59:51.874Z,3820.00
2018-11-20T08:00:51.865Z,3576.00
2018-11-20T08:01:52.077Z,3912.00
2018-11-20T08:02:51.843Z,3860.00
2018-11-20T08:03:51.902Z,3768.00
2018-11-20T08:04:51.821Z,3676.00
2018-11-20T08:05:51.812Z,3596.00
2018-11-20T08:06:51.800Z,3712.00
2018-11-20T08:07:51.899Z,3636.00
2018-11-20T08:08:51.780Z,3684.00
2018-11-20T08:09:51.773Z,3908.00
2018-11-20T08:10:51.761Z,3672.00
2018-11-20T08:11:51.748Z,3920.00
2018-11-20T08:12:51.735Z,4056.00
2018-11-20T08:13:51.941Z,4072.00
2018-11-20T08:14:51.747Z,4292.00
2018-11-20T08:15:51.754Z,4304.00
2018-11-20T08:16:51.697Z,4532.00
2018-11-20T08:17:51.683Z,4748.00
2018-11-20T08:18:51.672Z,4944.00
2018-11-20T08:19:51.862Z,5020.00
2018-11-20T08:20:51.650Z,5004.00
2018-11-20T08:21:51.639Z,4604.00
2018-11-20T08:22:51.629Z,4824.00
2018-11-20T08:23:51.618Z,4636.00
2018-11-20T08:24:51.608Z,4608.00
2018-11-20T08:25:51.992Z,4764.00
2018-11-20T08:26:51.588Z,4804.00
2018-11-20T08:27:51.575Z,4560.00
2018-11-20T08:28:51.606Z,4548.00
2018-11-20T08:29:51.554Z,4448.00
2018-11-20T08:30:51.589Z,4632.00
2018-11-20T08:31:51.633Z,4628.00
2018-11-20T08:32:51.522Z,4472.00
2018-11-20T08:33:51.592Z,4508.00
2018-11-20T08:34:51.501Z,4628.00
2018-11-20T08:35:51.489Z,4836.00
2018-11-20T08:36:51.479Z,4904.00
2018-11-20T08:37:51.682Z,5120.00
2018-11-20T08:38:51.458Z,5156.00
2018-11-20T08:39:51.449Z,5212.00
2018-11-20T08:40:51.435Z,5184.00
2018-11-20T08:41:51.446Z,5204.00
2018-11-20T08:42:51.419Z,5104.00
2018-11-20T08:43:51.504Z,5048.00
2018-11-20T08:44:51.400Z,5020.00
2018-11-20T08:45:51.384Z,4984.00
2018-11-20T08:46:51.371Z,4816.00
2018-11-20T08:47:51.558Z,4556.00
2018-11-20T08:48:51.350Z,3872.00
2018-11-20T08:49:51.525Z,3780.00
2018-11-20T08:50:51.329Z,4492.00
2018-11-20T08:51:51.320Z,4600.00
2018-11-20T08:52:51.357Z,4716.00
2018-11-20T08:53:51.459Z,4776.00
2018-11-20T08:54:51.296Z,4772.00
2018-11-20T08:55:51.580Z,4792.00
2018-11-20T08:56:51.266Z,4860.00
2018-11-20T08:57:51.256Z,4940.00
2018-11-20T08:58:51.246Z,4980.00
2018-11-20T08:59:51.234Z,5040.00
2018-11-20T09:00:51.225Z,5076.00
2018-11-20T09:01:51.335Z,5100.00
2018-11-20T09:02:51.351Z,5152.00
2018-11-20T09:03:51.193Z,5032.00
2018-11-20T09:04:51.183Z,4644.00
2018-11-20T09:05:51.176Z,4564.00
2018-11-20T09:06:51.166Z,4620.00
2018-11-20T09:07:51.290Z,4548.00
2018-11-20T09:08:51.141Z,4564.00
2018-11-20T09:09:51.164Z,4624.00
2018-11-20T09:10:51.116Z,4492.00
2018-11-20T09:11:51.105Z,4744.00
2018-11-20T09:12:51.099Z,4884.00
2018-11-20T09:13:51.186Z,5052.00
2018-11-20T09:14:51.074Z,5240.00
2018-11-20T09:15:51.064Z,5264.00
2018-11-20T09:16:51.056Z,5132.00
2018-11-20T09:17:51.061Z,4992.00
2018-11-20T09:18:51.030Z,5028.00
2018-11-20T09:19:51.119Z,5100.00
2018-11-20T09:20:51.012Z,5076.00
2018-11-20T09:21:51.006Z,5132.00
2018-11-20T09:22:50.991Z,5232.00
2018-11-20T09:23:50.978Z,5236.00
2018-11-20T09:24:50.971Z,5456.00
2018-11-20T09:25:51.258Z,5404.00
2018-11-20T09:26:50.947Z,5284.00
2018-11-20T09:27:50.995Z,5572.00
2018-11-20T09:28:50.927Z,5436.00
2018-11-20T09:29:50.914Z,5736.00
2018-11-20T09:30:50.904Z,5668.00
2018-11-20T09:31:51.066Z,5792.00
2018-11-20T09:32:50.882Z,5772.00
2018-11-20T09:33:50.873Z,5808.00
2018-11-20T09:34:50.879Z,5852.00
2018-11-20T09:35:50.850Z,5868.00
2018-11-20T09:36:50.841Z,5980.00
2018-11-20T09:37:50.927Z,6076.00
2018-11-20T09:38:50.819Z,6080.00
2018-11-20T09:39:50.808Z,6036.00
2018-11-20T09:40:50.800Z,5956.00
2018-11-20T09:41:50.787Z,6012.00
2018-11-20T09:42:50.777Z,6076.00
2018-11-20T09:43:50.871Z,6024.00
2018-11-20T09:44:50.754Z,6212.00
2018-11-20T09:45:50.743Z,6540.00
2018-11-20T09:46:50.786Z,6832.00
2018-11-20T09:47:50.722Z,7120.00
2018-11-20T09:48:50.720Z,7372.00
2018-11-20T09:49:50.978Z,7452.00
2018-11-20T09:50:50.691Z,7456.00
2018-11-20T09:51:50.680Z,7336.00
2018-11-20T09:52:50.838Z,7208.00
2018-11-20T09:53:50.658Z,7472.00
2018-11-20T09:54:50.650Z,7720.00
2018-11-20T09:55:50.742Z,7772.00
2018-11-20T09:56:50.627Z,7880.00
2018-11-20T09:57:50.617Z,7972.00
2018-11-20T09:58:50.613Z,7940.00
2018-11-20T09:59:50.651Z,7740.00
2018-11-20T10:00:50.584Z,7588.00
2018-11-20T10:01:50.702Z,6460.00
2018-11-20T10:02:50.562Z,7588.00
2018-11-20T10:03:50.687Z,7484.00
2018-11-20T10:04:50.548Z,7140.00
2018-11-20T10:05:50.532Z,7904.00
2018-11-20T10:06:50.587Z,7976.00
2018-11-20T10:07:50.829Z,7984.00
2018-11-20T10:08:50.541Z,7940.00
2018-11-20T10:09:50.490Z,8092.00
2018-11-20T10:10:50.482Z,8240.00
2018-11-20T10:11:50.468Z,8264.00
2018-11-20T10:12:50.458Z,8572.00
2018-11-20T10:13:50.605Z,8716.00
2018-11-20T10:14:50.640Z,8672.00
2018-11-20T10:15:50.428Z,8620.00
2018-11-20T10:16:50.416Z,8524.00
2018-11-20T10:17:50.408Z,7044.00
2018-11-20T10:18:50.394Z,7112.00
2018-11-20T10:19:50.540Z,7500.00
2018-11-20T10:20:50.459Z,8380.00
2018-11-20T10:21:50.418Z,8532.00
2018-11-20T10:22:50.355Z,8808.00
2018-11-20T10:23:50.358Z,8648.00
2018-11-20T10:24:50.447Z,8920.00
2018-11-20T10:25:50.856Z,9316.00
2018-11-20T10:26:50.310Z,9428.00
2018-11-20T10:27:50.304Z,9568.00
2018-11-20T10:28:50.291Z,9688.00
2018-11-20T10:29:50.286Z,9456.00
2018-11-20T10:30:50.269Z,9112.00
2018-11-20T10:31:50.536Z,9032.00
2018-11-20T10:32:50.256Z,8988.00
2018-11-20T10:33:50.237Z,8836.00
2018-11-20T10:34:50.302Z,8644.00
2018-11-20T10:35:50.219Z,8724.00
2018-11-20T10:36:50.204Z,9084.00
2018-11-20T10:37:50.353Z,9212.00
2018-11-20T10:38:50.192Z,9392.00
2018-11-20T10:39:50.178Z,9708.00
2018-11-20T10:40:50.164Z,10092.00
2018-11-20T10:41:50.152Z,10376.00
2018-11-20T10:42:50.142Z,10448.00
2018-11-20T10:43:50.256Z,10608.00
2018-11-20T10:44:50.122Z,10364.00
2018-11-20T10:45:50.157Z,9752.00
2018-11-20T10:46:50.102Z,10192.00
2018-11-20T10:47:50.090Z,10388.00
2018-11-20T10:48:50.079Z,10308.00
2018-11-20T10:49:50.180Z,10136.00
2018-11-20T10:50:50.060Z,9036.00
2018-11-20T10:51:50.058Z,8936.00
2018-11-20T10:52:50.040Z,9764.00
2018-11-20T10:53:50.037Z,10208.00
2018-11-20T10:54:50.017Z,10396.00
2018-11-20T10:55:50.140Z,10376.00
2018-11-20T10:56:49.997Z,10616.00
2018-11-20T10:57:49.990Z,10760.00
2018-11-20T10:58:49.982Z,10500.00
2018-11-20T10:59:50.034Z,10572.00
2018-11-20T11:00:49.956Z,10804.00
2018-11-20T11:01:50.243Z,11100.00
2018-11-20T11:02:49.935Z,11200.00
2018-11-20T11:03:49.931Z,11220.00
2018-11-20T11:04:49.967Z,11156.00
2018-11-20T11:05:49.905Z,11192.00
2018-11-20T11:06:50.158Z,11208.00
2018-11-20T11:07:50.207Z,10720.00
2018-11-20T11:08:49.873Z,9224.00
2018-11-20T11:09:49.863Z,10884.00
2018-11-20T11:10:49.852Z,11656.00
2018-11-20T11:11:49.869Z,11572.00
2018-11-20T11:12:49.996Z,11088.00
2018-11-20T11:13:49.918Z,9796.00
2018-11-20T11:14:49.908Z,9728.00
2018-11-20T11:15:49.805Z,10832.00
2018-11-20T11:16:49.793Z,11508.00
2018-11-20T11:17:49.780Z,11388.00
2018-11-20T11:18:49.771Z,11624.00
2018-11-20T11:19:49.931Z,11240.00
2018-11-20T11:20:49.792Z,9880.00
2018-11-20T11:21:49.741Z,8708.00
2018-11-20T11:22:49.736Z,9144.00
2018-11-20T11:23:49.720Z,8824.00
2018-11-20T11:24:49.708Z,9312.00
2018-11-20T11:25:49.888Z,10320.00
2018-11-20T11:26:49.689Z,10936.00
2018-11-20T11:27:49.686Z,11468.00
2018-11-20T11:28:51.419Z,12436.00
2018-11-20T11:29:49.658Z,12436.00
2018-11-20T11:30:49.648Z,12180.00
2018-11-20T11:31:49.743Z,11884.00
2018-11-20T11:32:49.628Z,12004.00
2018-11-20T11:33:49.620Z,11192.00
2018-11-20T11:34:49.612Z,11940.00
2018-11-20T11:35:49.597Z,12808.00
2018-11-20T11:36:49.592Z,13024.00
2018-11-20T11:37:49.686Z,13504.00
2018-11-20T11:38:49.606Z,13472.00
2018-11-20T11:39:49.557Z,12768.00
2018-11-20T11:40:49.545Z,12420.00
2018-11-20T11:41:49.539Z,12168.00
2018-11-20T11:42:49.523Z,11336.00
2018-11-20T11:43:49.623Z,10548.00
2018-11-20T11:44:49.506Z,11288.00
2018-11-20T11:45:49.532Z,11488.00
2018-11-20T11:46:49.484Z,11012.00
2018-11-20T11:47:49.474Z,11764.00
2018-11-20T11:48:49.463Z,10604.00
2018-11-20T11:49:49.638Z,11584.00
2018-11-20T11:50:49.442Z,11364.00
2018-11-20T11:51:49.432Z,11628.00
2018-11-20T11:52:49.424Z,12124.00
2018-11-20T11:53:49.412Z,13248.00
2018-11-20T11:54:49.471Z,13920.00
2018-11-20T11:55:49.511Z,14272.00
2018-11-20T11:56:49.383Z,14304.00
2018-11-20T11:57:49.373Z,13792.00
2018-11-20T11:58:49.375Z,13824.00
2018-11-20T11:59:49.355Z,14464.00
2018-11-20T12:00:49.342Z,15552.00
2018-11-20T12:03:49.323Z,14272.00
2018-11-20T12:04:49.315Z,12652.00
2018-11-20T12:05:49.292Z,13600.00
2018-11-20T12:06:49.288Z,13952.00
2018-11-20T12:07:49.446Z,14208.00
2018-11-20T12:08:49.267Z,15104.00
2018-11-20T12:09:49.255Z,15968.00
2018-11-20T12:10:49.245Z,16736.00
2018-11-20T12:11:49.236Z,17440.00
2018-11-20T12:12:49.225Z,17024.00
2018-11-20T12:13:49.337Z,10136.00
2018-11-20T12:14:51.399Z,8336.00
2018-11-20T12:15:49.194Z,8224.00
2018-11-20T12:16:49.192Z,8524.00
2018-11-20T12:17:49.175Z,9036.00
2018-11-20T12:18:49.165Z,9036.00
2018-11-20T12:19:49.282Z,9460.00
2018-11-20T12:20:49.145Z,30368.00
2018-11-20T12:21:49.135Z,23520.00
2018-11-20T12:22:49.123Z,28576.00
2018-11-20T12:23:49.115Z,28384.00
2018-11-20T12:24:49.104Z,26912.00
2018-11-20T12:25:49.220Z,14048.00
2018-11-20T12:26:49.087Z,24096.00
2018-11-20T12:27:49.072Z,24384.00
2018-11-20T12:28:53.038Z,29024.00
2018-11-20T12:29:49.057Z,27392.00
2018-11-20T12:30:49.041Z,28608.00
2018-11-20T12:31:50.779Z,24640.00
2018-11-20T12:32:49.449Z,10276.00